sensor_id;sensor_type;location;lat;lon;timestamp;temperature;humidity
2062;DHT22;11070;51.336;12.340;2023-05-10T00:00:59;11.90;1.00
2062;DHT22;11070;51.336;12.340;2023-05-10T00:03:24;11.80;1.00
2062;DHT22;11070;51.336;12.340;2023-05-10T00:05:50;11.80;1.00
2062;DHT22;11070;51.336;12.340;2023-05-10T00:08:15;11.80;1.00
2062;DHT22;11070;51.336;12.340;2023-05-10T00:10:41;11.80;1.00
2062;DHT22;11070;51.336;12.340;2023-05-10T00:13:07;11.70;1.00
2062;DHT22;11070;51.336;12.340;2023-05-10T00:15:32;11.70;1.00
2062;DHT22;11070;51.336;12.340;2023-05-10T00:18:00;11.70;1.00
2062;DHT22;11070;51.336;12.340;2023-05-10T00:20:26;11.70;1.00
2062;DHT22;11070;51.336;12.340;2023-05-10T00:22:51;11.70;1.00
2062;DHT22;11070;51.336;12.340;2023-05-10T00:25:17;11.60;1.00
2062;DHT22;11070;51.336;12.340;2023-05-10T00:27:43;11.60;1.00
2062;DHT22;11070;51.336;12.340;2023-05-10T00:30:09;11.60;1.00
2062;DHT22;11070;51.336;12.340;2023-05-10T00:32:34;11.50;1.00
2062;DHT22;11070;51.336;12.340;2023-05-10T00:35:00;11.50;1.00
2062;DHT22;11070;51.336;12.340;2023-05-10T00:37:26;11.40;1.00
2062;DHT22;11070;51.336;12.340;2023-05-10T00:39:52;11.40;1.00
2062;DHT22;11070;51.336;12.340;2023-05-10T00:42:17;11.40;1.00
2062;DHT22;11070;51.336;12.340;2023-05-10T00:44:43;11.30;1.00
2062;DHT22;11070;51.336;12.340;2023-05-10T00:47:08;11.30;1.00
2062;DHT22;11070;51.336;12.340;2023-05-10T00:49:35;11.30;1.00
2062;DHT22;11070;51.336;12.340;2023-05-10T00:52:01;11.30;1.00
2062;DHT22;11070;51.336;12.340;2023-05-10T00:54:28;11.20;1.00
2062;DHT22;11070;51.336;12.340;2023-05-10T00:56:54;11.30;1.00
2062;DHT22;11070;51.336;12.340;2023-05-10T00:59:20;11.20;1.00
2062;DHT22;11070;51.336;12.340;2023-05-10T01:01:47;11.20;1.00
2062;DHT22;11070;51.336;12.340;2023-05-10T01:04:14;11.20;1.00
2062;DHT22;11070;51.336;12.340;2023-05-10T01:06:40;11.20;1.00
2062;DHT22;11070;51.336;12.340;2023-05-10T01:09:06;11.20;1.00
2062;DHT22;11070;51.336;12.340;2023-05-10T01:11:36;11.10;1.00
2062;DHT22;11070;51.336;12.340;2023-05-10T01:14:02;11.20;1.00
2062;DHT22;11070;51.336;12.340;2023-05-10T01:16:29;11.10;1.00
2062;DHT22;11070;51.336;12.340;2023-05-10T01:18:57;11.10;1.00
2062;DHT22;11070;51.336;12.340;2023-05-10T01:21:50;11.10;1.00
2062;DHT22;11070;51.336;12.340;2023-05-10T01:32:43;11.10;1.00
2062;DHT22;11070;51.336;12.340;2023-05-10T01:40:40;11.00;1.00
2062;DHT22;11070;51.336;12.340;2023-05-10T01:43:22;11.00;1.00
2062;DHT22;11070;51.336;12.340;2023-05-10T01:46:01;11.00;1.00
2062;DHT22;11070;51.336;12.340;2023-05-10T01:48:30;11.00;1.00
2062;DHT22;11070;51.336;12.340;2023-05-10T01:50:57;10.90;1.00
2062;DHT22;11070;51.336;12.340;2023-05-10T01:53:23;10.90;1.00
2062;DHT22;11070;51.336;12.340;2023-05-10T01:55:52;10.90;1.00
2062;DHT22;11070;51.336;12.340;2023-05-10T01:58:24;10.90;1.00
2062;DHT22;11070;51.336;12.340;2023-05-10T02:00:51;10.90;1.00
2062;DHT22;11070;51.336;12.340;2023-05-10T02:03:20;10.90;1.00
2062;DHT22;11070;51.336;12.340;2023-05-10T02:05:48;10.90;1.00
2062;DHT22;11070;51.336;12.340;2023-05-10T02:08:15;10.90;1.00
2062;DHT22;11070;51.336;12.340;2023-05-10T02:10:43;10.90;1.00
2062;DHT22;11070;51.336;12.340;2023-05-10T02:13:11;10.90;1.00
2062;DHT22;11070;51.336;12.340;2023-05-10T02:15:38;10.90;1.00
2062;DHT22;11070;51.336;12.340;2023-05-10T02:18:05;10.90;1.00
2062;DHT22;11070;51.336;12.340;2023-05-10T02:20:31;10.90;1.00
2062;DHT22;11070;51.336;12.340;2023-05-10T02:22:58;10.90;1.00
2062;DHT22;11070;51.336;12.340;2023-05-10T02:25:25;10.90;1.00
2062;DHT22;11070;51.336;12.340;2023-05-10T02:27:53;10.90;1.00
2062;DHT22;11070;51.336;12.340;2023-05-10T02:30:21;10.80;1.00
2062;DHT22;11070;51.336;12.340;2023-05-10T02:32:47;10.80;1.00
2062;DHT22;11070;51.336;12.340;2023-05-10T02:35:14;10.80;1.00
2062;DHT22;11070;51.336;12.340;2023-05-10T02:37:41;10.70;1.00
2062;DHT22;11070;51.336;12.340;2023-05-10T02:40:07;10.70;1.00
2062;DHT22;11070;51.336;12.340;2023-05-10T02:42:36;10.70;1.00
2062;DHT22;11070;51.336;12.340;2023-05-10T02:45:07;10.70;1.00
2062;DHT22;11070;51.336;12.340;2023-05-10T02:47:33;10.70;1.00
2062;DHT22;11070;51.336;12.340;2023-05-10T02:49:59;10.70;1.00
2062;DHT22;11070;51.336;12.340;2023-05-10T02:52:27;10.60;1.00
2062;DHT22;11070;51.336;12.340;2023-05-10T02:55:01;10.60;1.00
2062;DHT22;11070;51.336;12.340;2023-05-10T02:57:32;10.60;1.00
2062;DHT22;11070;51.336;12.340;2023-05-10T02:59:59;10.60;1.00
2062;DHT22;11070;51.336;12.340;2023-05-10T03:02:26;10.50;1.00
2062;DHT22;11070;51.336;12.340;2023-05-10T03:04:52;10.50;1.00
2062;DHT22;11070;51.336;12.340;2023-05-10T03:07:18;10.50;1.00
2062;DHT22;11070;51.336;12.340;2023-05-10T03:09:47;10.50;11.70
2062;DHT22;11070;51.336;12.340;2023-05-10T03:18:01;10.40;50.00
2062;DHT22;11070;51.336;12.340;2023-05-10T03:20:34;10.40;99.90
2062;DHT22;11070;51.336;12.340;2023-05-10T03:23:09;10.30;99.90
2062;DHT22;11070;51.336;12.340;2023-05-10T03:25:37;10.30;99.90
2062;DHT22;11070;51.336;12.340;2023-05-10T03:28:05;10.30;99.90
2062;DHT22;11070;51.336;12.340;2023-05-10T03:30:32;10.30;99.90
2062;DHT22;11070;51.336;12.340;2023-05-10T03:33:04;10.30;99.90
2062;DHT22;11070;51.336;12.340;2023-05-10T03:35:31;10.30;99.90
2062;DHT22;11070;51.336;12.340;2023-05-10T03:37:57;10.30;99.90
2062;DHT22;11070;51.336;12.340;2023-05-10T03:40:23;10.40;99.90
2062;DHT22;11070;51.336;12.340;2023-05-10T03:42:49;10.40;99.90
2062;DHT22;11070;51.336;12.340;2023-05-10T03:45:14;10.40;99.90
2062;DHT22;11070;51.336;12.340;2023-05-10T03:47:40;10.50;99.90
2062;DHT22;11070;51.336;12.340;2023-05-10T03:50:06;10.50;99.90
2062;DHT22;11070;51.336;12.340;2023-05-10T03:52:32;10.50;99.90
2062;DHT22;11070;51.336;12.340;2023-05-10T03:54:58;10.50;99.90
2062;DHT22;11070;51.336;12.340;2023-05-10T03:57:23;10.60;90.90
2062;DHT22;11070;51.336;12.340;2023-05-10T03:59:49;10.60;50.50
2062;DHT22;11070;51.336;12.340;2023-05-10T04:02:15;10.70;5.90
2062;DHT22;11070;51.336;12.340;2023-05-10T04:04:41;10.70;1.00
2062;DHT22;11070;51.336;12.340;2023-05-10T04:07:07;10.80;1.60
2062;DHT22;11070;51.336;12.340;2023-05-10T04:09:33;10.90;1.00
2062;DHT22;11070;51.336;12.340;2023-05-10T04:11:59;10.90;1.00
2062;DHT22;11070;51.336;12.340;2023-05-10T04:14:26;10.90;1.00
2062;DHT22;11070;51.336;12.340;2023-05-10T04:16:51;11.00;1.00
2062;DHT22;11070;51.336;12.340;2023-05-10T04:19:17;11.00;1.00
2062;DHT22;11070;51.336;12.340;2023-05-10T04:21:42;11.10;1.00
2062;DHT22;11070;51.336;12.340;2023-05-10T04:24:08;11.10;1.00
2062;DHT22;11070;51.336;12.340;2023-05-10T04:26:34;11.20;1.00
2062;DHT22;11070;51.336;12.340;2023-05-10T04:28:59;11.30;1.00
2062;DHT22;11070;51.336;12.340;2023-05-10T04:31:25;11.40;1.00
2062;DHT22;11070;51.336;12.340;2023-05-10T04:33:51;11.50;1.00
2062;DHT22;11070;51.336;12.340;2023-05-10T04:36:17;11.60;1.00
2062;DHT22;11070;51.336;12.340;2023-05-10T04:38:43;11.80;1.00
2062;DHT22;11070;51.336;12.340;2023-05-10T04:41:10;11.80;1.00
2062;DHT22;11070;51.336;12.340;2023-05-10T04:43:36;11.90;1.00
2062;DHT22;11070;51.336;12.340;2023-05-10T04:46:02;11.90;1.00
2062;DHT22;11070;51.336;12.340;2023-05-10T04:48:28;12.10;1.00
2062;DHT22;11070;51.336;12.340;2023-05-10T04:50:54;12.20;1.00
2062;DHT22;11070;51.336;12.340;2023-05-10T04:53:19;12.40;1.00
2062;DHT22;11070;51.336;12.340;2023-05-10T04:55:45;12.40;1.00
2062;DHT22;11070;51.336;12.340;2023-05-10T04:58:12;12.50;1.00
2062;DHT22;11070;51.336;12.340;2023-05-10T05:00:37;12.60;1.00
2062;DHT22;11070;51.336;12.340;2023-05-10T05:03:03;12.80;1.00
2062;DHT22;11070;51.336;12.340;2023-05-10T05:05:29;12.90;99.90
2062;DHT22;11070;51.336;12.340;2023-05-10T05:07:54;13.00;99.90
2062;DHT22;11070;51.336;12.340;2023-05-10T05:10:20;13.00;99.90
2062;DHT22;11070;51.336;12.340;2023-05-10T05:12:46;13.20;99.90
2062;DHT22;11070;51.336;12.340;2023-05-10T05:15:11;13.30;99.90
2062;DHT22;11070;51.336;12.340;2023-05-10T05:17:37;13.40;99.90
2062;DHT22;11070;51.336;12.340;2023-05-10T05:20:03;13.50;99.90
2062;DHT22;11070;51.336;12.340;2023-05-10T05:22:29;13.60;99.90
2062;DHT22;11070;51.336;12.340;2023-05-10T05:24:56;13.70;99.90
2062;DHT22;11070;51.336;12.340;2023-05-10T05:27:22;13.80;99.90
2062;DHT22;11070;51.336;12.340;2023-05-10T05:29:50;14.00;99.90
2062;DHT22;11070;51.336;12.340;2023-05-10T05:32:17;14.10;99.90
2062;DHT22;11070;51.336;12.340;2023-05-10T05:34:45;14.30;99.90
2062;DHT22;11070;51.336;12.340;2023-05-10T05:37:15;14.30;99.90
2062;DHT22;11070;51.336;12.340;2023-05-10T05:39:41;14.40;99.90
2062;DHT22;11070;51.336;12.340;2023-05-10T05:42:08;14.40;99.90
2062;DHT22;11070;51.336;12.340;2023-05-10T05:44:34;14.40;99.90
2062;DHT22;11070;51.336;12.340;2023-05-10T05:47:00;14.40;99.90
2062;DHT22;11070;51.336;12.340;2023-05-10T05:49:25;14.30;99.90
2062;DHT22;11070;51.336;12.340;2023-05-10T05:51:51;14.30;99.90
2062;DHT22;11070;51.336;12.340;2023-05-10T05:54:22;14.20;99.90
2062;DHT22;11070;51.336;12.340;2023-05-10T05:56:57;14.30;99.90
2062;DHT22;11070;51.336;12.340;2023-05-10T05:59:23;14.50;99.90
2062;DHT22;11070;51.336;12.340;2023-05-10T06:01:49;14.20;99.90
2062;DHT22;11070;51.336;12.340;2023-05-10T06:04:15;14.20;99.90
2062;DHT22;11070;51.336;12.340;2023-05-10T06:06:41;14.30;99.90
2062;DHT22;11070;51.336;12.340;2023-05-10T06:09:08;14.40;99.90
2062;DHT22;11070;51.336;12.340;2023-05-10T06:11:34;14.40;99.90
2062;DHT22;11070;51.336;12.340;2023-05-10T06:14:00;14.50;99.90
2062;DHT22;11070;51.336;12.340;2023-05-10T06:16:26;14.70;99.90
2062;DHT22;11070;51.336;12.340;2023-05-10T06:18:51;14.80;99.90
2062;DHT22;11070;51.336;12.340;2023-05-10T06:21:17;15.00;99.90
2062;DHT22;11070;51.336;12.340;2023-05-10T06:23:43;15.20;99.90
2062;DHT22;11070;51.336;12.340;2023-05-10T06:26:09;15.30;99.90
2062;DHT22;11070;51.336;12.340;2023-05-10T06:28:35;15.10;99.90
2062;DHT22;11070;51.336;12.340;2023-05-10T06:31:03;15.10;99.90
2062;DHT22;11070;51.336;12.340;2023-05-10T06:33:29;15.20;99.90
2062;DHT22;11070;51.336;12.340;2023-05-10T06:35:55;15.40;99.90
2062;DHT22;11070;51.336;12.340;2023-05-10T06:38:21;15.50;99.90
2062;DHT22;11070;51.336;12.340;2023-05-10T06:40:47;15.70;99.90
2062;DHT22;11070;51.336;12.340;2023-05-10T06:43:13;15.90;99.90
2062;DHT22;11070;51.336;12.340;2023-05-10T06:45:38;16.30;99.90
2062;DHT22;11070;51.336;12.340;2023-05-10T06:48:04;16.30;99.90
2062;DHT22;11070;51.336;12.340;2023-05-10T06:50:30;16.30;99.90
2062;DHT22;11070;51.336;12.340;2023-05-10T06:52:55;16.20;99.90
2062;DHT22;11070;51.336;12.340;2023-05-10T06:55:21;16.40;99.90
2062;DHT22;11070;51.336;12.340;2023-05-10T06:57:47;16.20;99.90
2062;DHT22;11070;51.336;12.340;2023-05-10T07:00:13;16.40;99.90
2062;DHT22;11070;51.336;12.340;2023-05-10T07:02:39;16.50;99.90
2062;DHT22;11070;51.336;12.340;2023-05-10T07:05:05;16.40;99.90
2062;DHT22;11070;51.336;12.340;2023-05-10T07:07:31;16.10;99.90
2062;DHT22;11070;51.336;12.340;2023-05-10T07:09:57;16.50;99.90
2062;DHT22;11070;51.336;12.340;2023-05-10T07:12:23;16.70;99.90
2062;DHT22;11070;51.336;12.340;2023-05-10T07:14:49;16.70;99.90
2062;DHT22;11070;51.336;12.340;2023-05-10T07:17:15;16.80;99.90
2062;DHT22;11070;51.336;12.340;2023-05-10T07:19:41;16.90;99.90
2062;DHT22;11070;51.336;12.340;2023-05-10T07:22:06;17.20;99.90
2062;DHT22;11070;51.336;12.340;2023-05-10T07:24:33;17.40;99.90
2062;DHT22;11070;51.336;12.340;2023-05-10T07:26:59;17.60;99.90
2062;DHT22;11070;51.336;12.340;2023-05-10T07:29:25;17.70;99.90
2062;DHT22;11070;51.336;12.340;2023-05-10T07:31:51;17.80;99.90
2062;DHT22;11070;51.336;12.340;2023-05-10T07:34:17;17.90;99.90
2062;DHT22;11070;51.336;12.340;2023-05-10T07:36:42;17.50;99.90
2062;DHT22;11070;51.336;12.340;2023-05-10T07:39:08;17.90;99.90
2062;DHT22;11070;51.336;12.340;2023-05-10T07:41:34;18.00;99.90
2062;DHT22;11070;51.336;12.340;2023-05-10T07:43:59;18.00;99.90
2062;DHT22;11070;51.336;12.340;2023-05-10T07:46:25;18.10;99.90
2062;DHT22;11070;51.336;12.340;2023-05-10T07:48:51;18.00;99.90
2062;DHT22;11070;51.336;12.340;2023-05-10T07:51:16;17.60;99.90
2062;DHT22;11070;51.336;12.340;2023-05-10T07:53:42;16.80;99.90
2062;DHT22;11070;51.336;12.340;2023-05-10T07:56:29;16.50;99.90
2062;DHT22;11070;51.336;12.340;2023-05-10T07:58:55;16.60;99.90
2062;DHT22;11070;51.336;12.340;2023-05-10T08:01:22;16.50;99.90
2062;DHT22;11070;51.336;12.340;2023-05-10T08:03:48;16.60;99.90
2062;DHT22;11070;51.336;12.340;2023-05-10T08:06:15;16.80;99.90
2062;DHT22;11070;51.336;12.340;2023-05-10T08:08:41;16.80;99.90
2062;DHT22;11070;51.336;12.340;2023-05-10T08:11:07;16.70;99.90
2062;DHT22;11070;51.336;12.340;2023-05-10T08:13:33;16.60;99.90
2062;DHT22;11070;51.336;12.340;2023-05-10T08:15:59;16.30;99.90
2062;DHT22;11070;51.336;12.340;2023-05-10T08:18:26;16.30;99.90
2062;DHT22;11070;51.336;12.340;2023-05-10T08:20:51;16.00;99.90
2062;DHT22;11070;51.336;12.340;2023-05-10T08:23:17;15.80;99.90
2062;DHT22;11070;51.336;12.340;2023-05-10T08:25:43;15.70;1.00
2062;DHT22;11070;51.336;12.340;2023-05-10T08:28:08;16.00;1.00
2062;DHT22;11070;51.336;12.340;2023-05-10T08:30:34;16.00;1.00
2062;DHT22;11070;51.336;12.340;2023-05-10T08:32:59;15.90;1.00
2062;DHT22;11070;51.336;12.340;2023-05-10T08:35:25;15.70;1.00
2062;DHT22;11070;51.336;12.340;2023-05-10T08:37:51;15.70;1.00
2062;DHT22;11070;51.336;12.340;2023-05-10T08:40:19;15.80;1.00
2062;DHT22;11070;51.336;12.340;2023-05-10T08:42:54;15.60;1.00
2062;DHT22;11070;51.336;12.340;2023-05-10T08:45:23;15.50;1.00
2062;DHT22;11070;51.336;12.340;2023-05-10T08:47:49;15.30;1.00
2062;DHT22;11070;51.336;12.340;2023-05-10T08:50:17;15.30;1.00
2062;DHT22;11070;51.336;12.340;2023-05-10T08:52:46;15.40;1.00
2062;DHT22;11070;51.336;12.340;2023-05-10T08:55:13;15.30;1.00
2062;DHT22;11070;51.336;12.340;2023-05-10T08:57:40;15.20;1.00
2062;DHT22;11070;51.336;12.340;2023-05-10T09:00:06;14.80;99.90
2062;DHT22;11070;51.336;12.340;2023-05-10T09:02:34;14.60;1.00
2062;DHT22;11070;51.336;12.340;2023-05-10T09:05:00;14.60;1.00
2062;DHT22;11070;51.336;12.340;2023-05-10T09:07:26;14.60;1.00
2062;DHT22;11070;51.336;12.340;2023-05-10T09:09:53;14.30;1.00
2062;DHT22;11070;51.336;12.340;2023-05-10T09:12:19;14.10;99.90
2062;DHT22;11070;51.336;12.340;2023-05-10T09:14:45;14.00;99.90
2062;DHT22;11070;51.336;12.340;2023-05-10T09:17:11;14.00;1.00
2062;DHT22;11070;51.336;12.340;2023-05-10T09:19:38;13.90;1.00
2062;DHT22;11070;51.336;12.340;2023-05-10T09:22:04;14.00;1.00
2062;DHT22;11070;51.336;12.340;2023-05-10T09:24:30;13.90;99.90
2062;DHT22;11070;51.336;12.340;2023-05-10T09:26:57;13.90;1.00
2062;DHT22;11070;51.336;12.340;2023-05-10T09:29:23;13.70;1.00
2062;DHT22;11070;51.336;12.340;2023-05-10T09:31:52;13.70;1.00
2062;DHT22;11070;51.336;12.340;2023-05-10T09:34:30;13.80;1.00
2062;DHT22;11070;51.336;12.340;2023-05-10T09:36:59;13.90;99.90
2062;DHT22;11070;51.336;12.340;2023-05-10T09:39:36;13.80;99.90
2062;DHT22;11070;51.336;12.340;2023-05-10T09:42:07;13.70;47.50
2062;DHT22;11070;51.336;12.340;2023-05-10T09:44:34;13.80;99.90
2062;DHT22;11070;51.336;12.340;2023-05-10T09:47:01;13.90;1.20
2062;DHT22;11070;51.336;12.340;2023-05-10T09:49:27;13.80;1.00
2062;DHT22;11070;51.336;12.340;2023-05-10T09:52:03;13.80;99.90
2062;DHT22;11070;51.336;12.340;2023-05-10T09:54:30;13.80;1.00
2062;DHT22;11070;51.336;12.340;2023-05-10T09:56:56;13.90;99.90
2062;DHT22;11070;51.336;12.340;2023-05-10T09:59:25;13.90;1.00
2062;DHT22;11070;51.336;12.340;2023-05-10T10:01:52;13.80;1.00
2062;DHT22;11070;51.336;12.340;2023-05-10T10:04:18;13.70;1.00
2062;DHT22;11070;51.336;12.340;2023-05-10T10:06:45;13.70;9.80
2062;DHT22;11070;51.336;12.340;2023-05-10T10:09:10;13.80;99.90
2062;DHT22;11070;51.336;12.340;2023-05-10T10:11:38;13.80;99.90
2062;DHT22;11070;51.336;12.340;2023-05-10T10:14:04;13.80;40.10
2062;DHT22;11070;51.336;12.340;2023-05-10T10:16:31;13.70;99.90
2062;DHT22;11070;51.336;12.340;2023-05-10T10:18:57;13.70;1.00
2062;DHT22;11070;51.336;12.340;2023-05-10T10:21:23;13.80;1.00
2062;DHT22;11070;51.336;12.340;2023-05-10T10:23:49;13.80;99.90
2062;DHT22;11070;51.336;12.340;2023-05-10T10:26:17;14.00;1.00
2062;DHT22;11070;51.336;12.340;2023-05-10T10:31:48;14.10;1.00
2062;DHT22;11070;51.336;12.340;2023-05-10T10:34:28;14.00;1.00
2062;DHT22;11070;51.336;12.340;2023-05-10T10:36:55;14.00;1.00
2062;DHT22;11070;51.336;12.340;2023-05-10T10:39:22;14.00;1.00
2062;DHT22;11070;51.336;12.340;2023-05-10T10:41:52;14.10;1.00
2062;DHT22;11070;51.336;12.340;2023-05-10T10:54:53;13.80;1.00
2062;DHT22;11070;51.336;12.340;2023-05-10T10:57:22;13.80;1.00
2062;DHT22;11070;51.336;12.340;2023-05-10T10:59:48;13.80;1.00
2062;DHT22;11070;51.336;12.340;2023-05-10T11:02:43;13.80;1.00
2062;DHT22;11070;51.336;12.340;2023-05-10T11:07:57;13.80;20.00
2062;DHT22;11070;51.336;12.340;2023-05-10T11:10:24;14.10;16.60
2062;DHT22;11070;51.336;12.340;2023-05-10T11:12:58;14.20;1.00
2062;DHT22;11070;51.336;12.340;2023-05-10T11:15:34;14.20;1.00
2062;DHT22;11070;51.336;12.340;2023-05-10T11:18:18;14.40;1.00
2062;DHT22;11070;51.336;12.340;2023-05-10T11:20:50;14.50;1.00
2062;DHT22;11070;51.336;12.340;2023-05-10T11:23:16;14.50;1.00
2062;DHT22;11070;51.336;12.340;2023-05-10T11:25:44;14.60;1.00
2062;DHT22;11070;51.336;12.340;2023-05-10T11:28:14;14.80;1.00
2062;DHT22;11070;51.336;12.340;2023-05-10T11:30:40;14.80;1.00
2062;DHT22;11070;51.336;12.340;2023-05-10T11:33:07;14.90;1.00
2062;DHT22;11070;51.336;12.340;2023-05-10T11:35:39;14.80;1.00
2062;DHT22;11070;51.336;12.340;2023-05-10T11:38:09;15.00;1.00
2062;DHT22;11070;51.336;12.340;2023-05-10T11:40:36;15.20;1.00
2062;DHT22;11070;51.336;12.340;2023-05-10T11:43:02;15.30;1.00
2062;DHT22;11070;51.336;12.340;2023-05-10T11:45:32;15.30;1.00
2062;DHT22;11070;51.336;12.340;2023-05-10T11:47:59;15.30;1.00
2062;DHT22;11070;51.336;12.340;2023-05-10T11:50:25;15.30;1.00
2062;DHT22;11070;51.336;12.340;2023-05-10T11:52:56;15.40;1.00
2062;DHT22;11070;51.336;12.340;2023-05-10T11:55:22;15.60;1.00
2062;DHT22;11070;51.336;12.340;2023-05-10T11:57:55;15.60;1.00
2062;DHT22;11070;51.336;12.340;2023-05-10T12:00:25;15.70;1.00
2062;DHT22;11070;51.336;12.340;2023-05-10T12:02:51;15.80;99.90
2062;DHT22;11070;51.336;12.340;2023-05-10T12:05:17;15.90;99.90
2062;DHT22;11070;51.336;12.340;2023-05-10T12:07:43;15.90;99.90
2062;DHT22;11070;51.336;12.340;2023-05-10T12:10:10;15.80;99.90
2062;DHT22;11070;51.336;12.340;2023-05-10T12:12:46;16.00;99.90
2062;DHT22;11070;51.336;12.340;2023-05-10T12:15:22;16.20;99.90
2062;DHT22;11070;51.336;12.340;2023-05-10T12:17:50;16.10;1.00
2062;DHT22;11070;51.336;12.340;2023-05-10T12:20:23;16.10;1.00
2062;DHT22;11070;51.336;12.340;2023-05-10T12:22:57;16.30;1.00
2062;DHT22;11070;51.336;12.340;2023-05-10T12:25:28;16.30;99.90
2062;DHT22;11070;51.336;12.340;2023-05-10T12:27:56;16.10;99.90
2062;DHT22;11070;51.336;12.340;2023-05-10T12:30:27;16.10;99.90
2062;DHT22;11070;51.336;12.340;2023-05-10T12:32:54;16.10;99.90
2062;DHT22;11070;51.336;12.340;2023-05-10T12:35:24;16.10;99.90
2062;DHT22;11070;51.336;12.340;2023-05-10T12:37:53;16.00;99.90
2062;DHT22;11070;51.336;12.340;2023-05-10T12:40:18;16.00;1.00
2062;DHT22;11070;51.336;12.340;2023-05-10T12:42:44;16.00;1.00
2062;DHT22;11070;51.336;12.340;2023-05-10T12:45:10;16.00;99.90
2062;DHT22;11070;51.336;12.340;2023-05-10T12:47:37;15.80;1.00
2062;DHT22;11070;51.336;12.340;2023-05-10T12:50:03;15.90;1.00
2062;DHT22;11070;51.336;12.340;2023-05-10T12:52:29;16.10;1.00
2062;DHT22;11070;51.336;12.340;2023-05-10T12:54:55;16.00;99.90
2062;DHT22;11070;51.336;12.340;2023-05-10T12:57:21;16.10;99.90
2062;DHT22;11070;51.336;12.340;2023-05-10T12:59:47;16.20;1.00
2062;DHT22;11070;51.336;12.340;2023-05-10T13:02:12;16.30;99.90
2062;DHT22;11070;51.336;12.340;2023-05-10T13:04:40;16.50;1.00
2062;DHT22;11070;51.336;12.340;2023-05-10T13:07:09;16.40;99.90
2062;DHT22;11070;51.336;12.340;2023-05-10T13:09:35;16.60;1.00
2062;DHT22;11070;51.336;12.340;2023-05-10T13:12:01;16.50;99.90
2062;DHT22;11070;51.336;12.340;2023-05-10T13:14:27;16.50;1.00
2062;DHT22;11070;51.336;12.340;2023-05-10T13:16:52;16.60;1.00
2062;DHT22;11070;51.336;12.340;2023-05-10T13:19:19;16.60;1.00
2062;DHT22;11070;51.336;12.340;2023-05-10T13:21:44;16.60;1.00
2062;DHT22;11070;51.336;12.340;2023-05-10T13:24:11;16.60;1.00
2062;DHT22;11070;51.336;12.340;2023-05-10T13:26:39;16.50;1.00
2062;DHT22;11070;51.336;12.340;2023-05-10T13:29:05;16.50;1.00
2062;DHT22;11070;51.336;12.340;2023-05-10T13:31:31;16.50;7.50
2062;DHT22;11070;51.336;12.340;2023-05-10T13:33:57;16.40;99.90
2062;DHT22;11070;51.336;12.340;2023-05-10T13:36:22;16.40;33.80
2062;DHT22;11070;51.336;12.340;2023-05-10T13:38:48;16.30;1.00
2062;DHT22;11070;51.336;12.340;2023-05-10T13:41:14;16.40;99.90
2062;DHT22;11070;51.336;12.340;2023-05-10T13:43:39;16.30;99.90
2062;DHT22;11070;51.336;12.340;2023-05-10T13:46:05;16.30;99.90
2062;DHT22;11070;51.336;12.340;2023-05-10T13:48:31;16.40;99.90
2062;DHT22;11070;51.336;12.340;2023-05-10T13:50:56;16.40;1.00
2062;DHT22;11070;51.336;12.340;2023-05-10T13:53:22;16.30;99.90
2062;DHT22;11070;51.336;12.340;2023-05-10T13:55:48;16.30;99.90
2062;DHT22;11070;51.336;12.340;2023-05-10T13:58:14;16.10;99.90
2062;DHT22;11070;51.336;12.340;2023-05-10T14:00:39;16.00;1.00
2062;DHT22;11070;51.336;12.340;2023-05-10T14:03:05;16.00;1.00
2062;DHT22;11070;51.336;12.340;2023-05-10T14:05:32;15.90;1.00
2062;DHT22;11070;51.336;12.340;2023-05-10T14:07:58;15.70;1.00
2062;DHT22;11070;51.336;12.340;2023-05-10T14:10:23;15.60;1.00
2062;DHT22;11070;51.336;12.340;2023-05-10T14:12:50;15.60;1.00
2062;DHT22;11070;51.336;12.340;2023-05-10T14:15:15;15.60;1.00
2062;DHT22;11070;51.336;12.340;2023-05-10T14:17:41;15.50;1.00
2062;DHT22;11070;51.336;12.340;2023-05-10T14:20:07;15.60;1.00
2062;DHT22;11070;51.336;12.340;2023-05-10T14:22:34;15.70;1.00
2062;DHT22;11070;51.336;12.340;2023-05-10T14:25:00;15.80;1.00
2062;DHT22;11070;51.336;12.340;2023-05-10T14:27:26;15.70;1.00
2062;DHT22;11070;51.336;12.340;2023-05-10T14:29:51;15.70;1.00
2062;DHT22;11070;51.336;12.340;2023-05-10T14:32:18;15.60;1.00
2062;DHT22;11070;51.336;12.340;2023-05-10T14:34:44;15.70;1.00
2062;DHT22;11070;51.336;12.340;2023-05-10T14:37:13;15.60;1.00
2062;DHT22;11070;51.336;12.340;2023-05-10T14:39:40;15.50;1.00
2062;DHT22;11070;51.336;12.340;2023-05-10T14:42:07;15.50;1.00
2062;DHT22;11070;51.336;12.340;2023-05-10T14:44:34;15.40;1.00
2062;DHT22;11070;51.336;12.340;2023-05-10T14:46:59;15.10;1.00
2062;DHT22;11070;51.336;12.340;2023-05-10T14:49:25;14.90;29.60
2062;DHT22;11070;51.336;12.340;2023-05-10T14:51:51;14.70;99.90
2062;DHT22;11070;51.336;12.340;2023-05-10T14:54:17;14.60;99.90
2062;DHT22;11070;51.336;12.340;2023-05-10T14:56:43;14.50;99.90
2062;DHT22;11070;51.336;12.340;2023-05-10T14:59:09;14.40;99.90
2062;DHT22;11070;51.336;12.340;2023-05-10T15:01:34;14.40;99.90
2062;DHT22;11070;51.336;12.340;2023-05-10T15:04:06;14.30;99.90
2062;DHT22;11070;51.336;12.340;2023-05-10T15:06:34;14.30;99.90
2062;DHT22;11070;51.336;12.340;2023-05-10T15:09:01;14.40;99.90
2062;DHT22;11070;51.336;12.340;2023-05-10T15:11:28;14.40;99.90
2062;DHT22;11070;51.336;12.340;2023-05-10T15:13:55;14.50;99.90
2062;DHT22;11070;51.336;12.340;2023-05-10T15:16:20;14.60;99.90
2062;DHT22;11070;51.336;12.340;2023-05-10T15:18:46;14.70;99.90
2062;DHT22;11070;51.336;12.340;2023-05-10T15:21:12;14.60;99.90
2062;DHT22;11070;51.336;12.340;2023-05-10T15:23:38;14.60;99.90
2062;DHT22;11070;51.336;12.340;2023-05-10T15:26:03;14.60;99.90
2062;DHT22;11070;51.336;12.340;2023-05-10T15:28:29;14.50;99.90
2062;DHT22;11070;51.336;12.340;2023-05-10T15:30:55;14.40;99.90
2062;DHT22;11070;51.336;12.340;2023-05-10T15:33:22;14.20;99.90
2062;DHT22;11070;51.336;12.340;2023-05-10T15:35:47;14.30;99.90
2062;DHT22;11070;51.336;12.340;2023-05-10T15:38:13;14.20;99.90
2062;DHT22;11070;51.336;12.340;2023-05-10T15:40:39;14.20;99.90
2062;DHT22;11070;51.336;12.340;2023-05-10T15:43:05;14.20;99.90
2062;DHT22;11070;51.336;12.340;2023-05-10T15:45:31;14.10;99.90
2062;DHT22;11070;51.336;12.340;2023-05-10T15:47:57;14.00;99.90
2062;DHT22;11070;51.336;12.340;2023-05-10T15:50:24;14.00;99.90
2062;DHT22;11070;51.336;12.340;2023-05-10T15:52:50;14.10;99.90
2062;DHT22;11070;51.336;12.340;2023-05-10T15:55:16;14.10;99.90
2062;DHT22;11070;51.336;12.340;2023-05-10T15:57:43;14.20;99.90
2062;DHT22;11070;51.336;12.340;2023-05-10T16:00:09;14.30;99.90
2062;DHT22;11070;51.336;12.340;2023-05-10T16:02:36;14.40;99.90
2062;DHT22;11070;51.336;12.340;2023-05-10T16:05:02;14.50;99.90
2062;DHT22;11070;51.336;12.340;2023-05-10T16:07:28;14.60;99.90
2062;DHT22;11070;51.336;12.340;2023-05-10T16:09:54;14.60;99.90
2062;DHT22;11070;51.336;12.340;2023-05-10T16:12:19;14.70;99.90
2062;DHT22;11070;51.336;12.340;2023-05-10T16:14:45;14.70;99.90